Wynne, Arkansas
Current Conditions -  °F | °C
As of 7:53 PM on Thursday 20 Nov 2014 (Local Time) from KAWM Reporting Station
Scattered Clouds Scattered Clouds  
Wind Chill: 42°   Ceiling: Unl
Heat Index: 45°   Visibility: 10mi
Dew Point: 29°   Wind: 6mph
Humidity: 53%   Direction: 90°E
Pressure: 30.21"   Gusts: NA
Location:  35.22°N, 90.79°W
Report Text: KAWM 210153Z AUTO 09005KT 10SM SCT041 07/M02 A3021 RMK AO2 SLP231 T00721017
Loading
Personal Weather Stations






























Interactive Weather Map New forecast layout! Learn more

10-Day Weather Forecast

Advertisements
Track Severe Weather on mobile